createdAt,value
2023-02-22T00:00:27.121Z,18.44
2023-02-22T00:00:58.551Z,18.41
2023-02-22T00:01:29.943Z,18.41
2023-02-22T00:02:01.369Z,18.40
2023-02-22T00:02:32.767Z,18.40
2023-02-22T00:03:04.232Z,18.40
2023-02-22T00:03:35.636Z,18.41
2023-02-22T00:04:07.083Z,18.41
2023-02-22T00:04:38.544Z,18.41
2023-02-22T00:05:09.955Z,18.39
2023-02-22T00:05:41.342Z,18.38
2023-02-22T00:06:12.756Z,18.38
2023-02-22T00:06:44.162Z,18.34
2023-02-22T00:07:15.571Z,18.34
2023-02-22T00:07:46.971Z,18.35
2023-02-22T00:08:18.398Z,18.36
2023-02-22T00:08:49.795Z,18.35
2023-02-22T00:09:21.191Z,18.34
2023-02-22T00:09:52.597Z,18.36
2023-02-22T00:10:23.987Z,18.35
2023-02-22T00:10:55.387Z,18.32
2023-02-22T00:11:26.784Z,18.30
2023-02-22T00:11:58.214Z,18.32
2023-02-22T00:12:29.610Z,18.34
2023-02-22T00:13:01.026Z,18.34
2023-02-22T00:13:32.457Z,18.31
2023-02-22T00:14:03.853Z,18.34
2023-02-22T00:14:35.277Z,18.32
2023-02-22T00:15:06.730Z,18.33
2023-02-22T00:15:38.178Z,18.32
2023-02-22T00:16:09.605Z,18.32
2023-02-22T00:16:41.039Z,18.30
2023-02-22T00:17:12.441Z,18.28
2023-02-22T00:17:43.853Z,18.31
2023-02-22T00:18:15.338Z,18.33
2023-02-22T00:18:46.733Z,18.30
2023-02-22T00:19:18.132Z,18.31
2023-02-22T00:19:49.522Z,18.29
2023-02-22T00:20:20.936Z,18.30
2023-02-22T00:20:52.351Z,18.28
2023-02-22T00:21:23.758Z,18.26
2023-02-22T00:21:55.212Z,18.26
2023-02-22T00:22:26.652Z,18.26
2023-02-22T00:22:58.083Z,18.28
2023-02-22T00:23:29.685Z,18.25
2023-02-22T00:24:01.135Z,18.24
2023-02-22T00:24:32.538Z,18.25
2023-02-22T00:25:03.953Z,18.25
2023-02-22T00:25:35.369Z,18.24
2023-02-22T00:26:06.754Z,18.22
2023-02-22T00:26:38.152Z,18.25
2023-02-22T00:27:09.630Z,18.22
2023-02-22T00:27:41.027Z,18.24
2023-02-22T00:28:12.422Z,18.24
2023-02-22T00:28:43.863Z,18.22
2023-02-22T00:29:15.257Z,18.23
2023-02-22T00:29:46.664Z,18.25
2023-02-22T00:30:18.086Z,18.25
2023-02-22T00:30:49.482Z,18.24
2023-02-22T00:31:21.097Z,18.25
2023-02-22T00:31:52.735Z,18.20
2023-02-22T00:32:24.303Z,18.19
2023-02-22T00:32:55.733Z,18.20
2023-02-22T00:33:27.154Z,18.21
2023-02-22T00:33:58.564Z,18.19
2023-02-22T00:34:29.987Z,18.19
2023-02-22T00:35:01.409Z,18.23
2023-02-22T00:35:32.815Z,18.22
2023-02-22T00:36:04.220Z,18.18
2023-02-22T00:36:35.652Z,18.16
2023-02-22T00:37:07.055Z,18.17
2023-02-22T00:37:38.491Z,18.18
2023-02-22T00:38:09.904Z,18.16
2023-02-22T00:38:41.351Z,18.19
2023-02-22T00:39:12.763Z,18.17
2023-02-22T00:39:44.180Z,18.16
2023-02-22T00:40:15.576Z,18.17
2023-02-22T00:40:46.987Z,18.18
2023-02-22T00:41:18.758Z,18.19
2023-02-22T00:41:50.431Z,18.15
2023-02-22T00:42:21.880Z,18.16
2023-02-22T00:42:53.296Z,18.16
2023-02-22T00:43:24.690Z,18.16
2023-02-22T00:43:56.123Z,18.16
2023-02-22T00:44:27.543Z,18.16
2023-02-22T00:44:58.949Z,18.15
2023-02-22T00:45:30.380Z,18.13
2023-02-22T00:46:01.851Z,18.13
2023-02-22T00:46:33.287Z,18.14
2023-02-22T00:47:04.714Z,18.13
2023-02-22T00:47:36.105Z,18.15
2023-02-22T00:48:07.545Z,18.15
2023-02-22T00:48:38.979Z,18.14
2023-02-22T00:49:10.376Z,18.15
2023-02-22T00:49:41.794Z,18.15
2023-02-22T00:50:13.189Z,18.15
2023-02-22T00:50:44.609Z,18.15
2023-02-22T00:51:16.197Z,18.14
2023-02-22T00:51:47.797Z,18.13
2023-02-22T00:52:19.211Z,18.12
2023-02-22T00:52:50.631Z,18.14
2023-02-22T00:53:22.075Z,18.10
2023-02-22T00:53:53.505Z,18.13
2023-02-22T00:54:24.911Z,18.12
2023-02-22T00:54:56.311Z,18.11
2023-02-22T00:55:27.724Z,18.12
2023-02-22T00:55:59.136Z,18.09
2023-02-22T00:56:30.557Z,18.09
2023-02-22T00:57:01.954Z,18.10
2023-02-22T00:57:33.381Z,18.11
2023-02-22T00:58:04.794Z,18.09
2023-02-22T00:58:36.200Z,18.10
2023-02-22T00:59:07.636Z,18.09
2023-02-22T00:59:39.041Z,18.12
2023-02-22T01:00:10.437Z,18.10
2023-02-22T01:00:41.847Z,18.11
2023-02-22T01:01:13.343Z,18.09
2023-02-22T01:01:44.792Z,18.10
2023-02-22T01:02:16.258Z,18.08
2023-02-22T01:02:47.858Z,18.09
2023-02-22T01:03:19.308Z,18.08
2023-02-22T01:03:50.940Z,18.07
2023-02-22T01:04:22.407Z,18.06
2023-02-22T01:04:53.916Z,18.06
2023-02-22T01:05:25.452Z,18.05
2023-02-22T01:05:56.931Z,18.06
2023-02-22T01:06:28.334Z,18.05
2023-02-22T01:06:59.752Z,18.08
2023-02-22T01:07:31.146Z,18.09
2023-02-22T01:08:02.553Z,18.05
2023-02-22T01:08:33.964Z,18.05
2023-02-22T01:09:05.395Z,18.08
2023-02-22T01:09:36.852Z,18.04
2023-02-22T01:10:08.262Z,18.03
2023-02-22T01:10:39.678Z,18.03
2023-02-22T01:11:11.094Z,18.03
2023-02-22T01:11:42.482Z,18.04
2023-02-22T01:12:13.895Z,18.02
2023-02-22T01:12:45.303Z,18.03
2023-02-22T01:13:16.894Z,18.03
2023-02-22T01:13:48.321Z,18.03
2023-02-22T01:14:19.719Z,18.02
2023-02-22T01:14:51.147Z,18.02
2023-02-22T01:15:22.555Z,18.02
2023-02-22T01:15:53.976Z,18.03
2023-02-22T01:16:25.376Z,18.00
2023-02-22T01:16:56.840Z,17.99
2023-02-22T01:17:28.278Z,18.01
2023-02-22T01:17:59.683Z,18.00
2023-02-22T01:18:31.081Z,18.01
2023-02-22T01:19:02.472Z,18.00
2023-02-22T01:19:33.878Z,18.02
2023-02-22T01:20:05.340Z,18.02
2023-02-22T01:20:36.774Z,18.01
2023-02-22T01:21:08.176Z,17.99
2023-02-22T01:21:39.572Z,17.98
2023-02-22T01:22:10.972Z,17.96
2023-02-22T01:22:42.380Z,17.95
2023-02-22T01:23:13.776Z,17.97
2023-02-22T01:23:45.234Z,17.96
2023-02-22T01:24:16.638Z,17.96
2023-02-22T01:24:48.039Z,17.97
2023-02-22T01:25:19.432Z,17.96
2023-02-22T01:25:50.840Z,17.95
2023-02-22T01:26:22.300Z,17.94
2023-02-22T01:26:53.703Z,17.96
2023-02-22T01:27:25.103Z,17.94
2023-02-22T01:27:56.496Z,17.94
2023-02-22T01:28:27.924Z,17.96
2023-02-22T01:28:59.367Z,17.95
2023-02-22T01:29:30.760Z,17.95
2023-02-22T01:30:02.167Z,17.92
2023-02-22T01:30:33.653Z,17.95
2023-02-22T01:31:05.177Z,17.91
2023-02-22T01:31:36.762Z,17.93
2023-02-22T01:32:08.236Z,17.96
2023-02-22T01:32:39.730Z,17.96
2023-02-22T01:33:11.127Z,17.96
2023-02-22T01:33:42.542Z,17.97
2023-02-22T01:34:13.935Z,17.96
2023-02-22T01:34:45.330Z,17.95
2023-02-22T01:35:16.744Z,17.95
2023-02-22T01:35:48.178Z,17.92
2023-02-22T01:36:19.588Z,17.94
2023-02-22T01:36:51.035Z,17.93
2023-02-22T01:37:22.432Z,17.95
2023-02-22T01:37:53.835Z,17.92
2023-02-22T01:38:25.238Z,17.91
2023-02-22T01:38:56.650Z,17.90
2023-02-22T01:39:28.039Z,17.91
2023-02-22T01:39:59.442Z,17.93
2023-02-22T01:40:30.858Z,17.93
2023-02-22T01:41:02.350Z,17.94
2023-02-22T01:41:33.744Z,17.95
2023-02-22T01:42:05.152Z,17.94
2023-02-22T01:42:36.562Z,17.94
2023-02-22T01:43:07.975Z,17.92
2023-02-22T01:43:39.377Z,17.93
2023-02-22T01:44:10.800Z,17.91
2023-02-22T01:44:42.229Z,17.91
2023-02-22T01:45:13.635Z,17.91
2023-02-22T01:45:45.127Z,17.91
2023-02-22T01:46:16.813Z,17.91
2023-02-22T01:46:48.240Z,17.91
2023-02-22T01:47:19.650Z,17.91
2023-02-22T01:47:51.036Z,17.89
2023-02-22T01:48:22.455Z,17.90
2023-02-22T01:48:53.891Z,17.89
2023-02-22T01:49:25.328Z,17.88
2023-02-22T01:49:56.747Z,17.87
2023-02-22T01:50:28.151Z,17.89
2023-02-22T01:50:59.567Z,17.89
2023-02-22T01:51:30.968Z,17.89
2023-02-22T01:52:02.382Z,17.88
2023-02-22T01:52:33.787Z,17.88
2023-02-22T01:53:05.217Z,17.89
2023-02-22T01:53:36.621Z,17.87
2023-02-22T01:54:08.017Z,17.87
2023-02-22T01:54:39.463Z,17.88
2023-02-22T01:55:10.879Z,17.86
2023-02-22T01:55:42.305Z,17.84
2023-02-22T01:56:13.712Z,17.87
2023-02-22T01:56:45.103Z,17.87
2023-02-22T01:57:16.509Z,17.87
2023-02-22T01:57:47.928Z,17.87
2023-02-22T01:58:19.327Z,17.85
2023-02-22T01:58:50.785Z,17.84
2023-02-22T01:59:22.200Z,17.86
2023-02-22T01:59:53.648Z,17.86
2023-02-22T02:00:25.045Z,17.85
2023-02-22T02:00:56.563Z,17.83
2023-02-22T02:01:28.003Z,17.83
2023-02-22T02:01:59.420Z,17.82
2023-02-22T02:02:30.811Z,17.82
2023-02-22T02:03:02.209Z,17.81
2023-02-22T02:03:33.638Z,17.81
2023-02-22T02:04:05.120Z,17.81
2023-02-22T02:04:36.508Z,17.83
2023-02-22T02:05:08.066Z,17.83
2023-02-22T02:05:39.567Z,17.83
2023-02-22T02:06:10.999Z,17.81
2023-02-22T02:06:42.422Z,17.81
2023-02-22T02:07:13.823Z,17.82
2023-02-22T02:07:45.227Z,17.82
2023-02-22T02:08:16.648Z,17.82
2023-02-22T02:08:48.039Z,17.82
2023-02-22T02:09:19.443Z,17.83
2023-02-22T02:09:50.901Z,17.82
2023-02-22T02:10:22.299Z,17.81
2023-02-22T02:10:53.715Z,17.80
2023-02-22T02:11:25.107Z,17.81
2023-02-22T02:11:56.521Z,17.82
2023-02-22T02:12:27.915Z,17.81
2023-02-22T02:12:59.306Z,17.82
2023-02-22T02:13:30.728Z,17.82
2023-02-22T02:14:02.144Z,17.81
2023-02-22T02:14:33.557Z,17.80
2023-02-22T02:15:04.993Z,17.80
2023-02-22T02:15:36.412Z,17.80
2023-02-22T02:16:07.824Z,17.80
2023-02-22T02:16:39.329Z,17.76
2023-02-22T02:17:10.750Z,17.78
2023-02-22T02:17:42.160Z,17.77
2023-02-22T02:18:13.562Z,17.79
2023-02-22T02:18:44.955Z,17.78
2023-02-22T02:19:16.347Z,17.78
2023-02-22T02:19:47.749Z,17.77
2023-02-22T02:20:19.186Z,17.77
2023-02-22T02:20:50.583Z,17.77
2023-02-22T02:21:21.974Z,17.77
2023-02-22T02:21:53.454Z,17.76
2023-02-22T02:22:24.867Z,17.77
2023-02-22T02:22:56.274Z,17.77
2023-02-22T02:23:27.671Z,17.77
2023-02-22T02:23:59.063Z,17.76
2023-02-22T02:24:30.463Z,17.74
2023-02-22T02:25:01.873Z,17.75
2023-02-22T02:25:33.316Z,17.75
2023-02-22T02:26:04.740Z,17.75
2023-02-22T02:26:36.141Z,17.74
2023-02-22T02:27:07.554Z,17.74
2023-02-22T02:27:38.971Z,17.73
2023-02-22T02:28:10.360Z,17.74
2023-02-22T02:28:41.763Z,17.74
2023-02-22T02:29:13.184Z,17.72
2023-02-22T02:29:44.570Z,17.71
2023-02-22T02:30:15.985Z,17.70
2023-02-22T02:30:47.432Z,17.71
2023-02-22T02:31:19.069Z,17.72
2023-02-22T02:31:50.796Z,17.70
2023-02-22T02:32:22.350Z,17.71
2023-02-22T02:32:53.878Z,17.72
2023-02-22T02:33:25.288Z,17.71
2023-02-22T02:33:56.681Z,17.72
2023-02-22T02:34:28.072Z,17.71
2023-02-22T02:34:59.483Z,17.70
2023-02-22T02:35:30.909Z,17.69
2023-02-22T02:36:02.361Z,17.70
2023-02-22T02:36:33.796Z,17.70
2023-02-22T02:37:05.207Z,17.69
2023-02-22T02:37:36.593Z,17.68
2023-02-22T02:38:08.004Z,17.69
2023-02-22T02:38:39.445Z,17.66
2023-02-22T02:39:10.890Z,17.69
2023-02-22T02:39:42.278Z,17.66
2023-02-22T02:40:13.701Z,17.66
2023-02-22T02:40:45.156Z,17.66
2023-02-22T02:41:16.854Z,17.67
2023-02-22T02:41:48.418Z,17.66
2023-02-22T02:42:19.839Z,17.67
2023-02-22T02:42:51.264Z,17.66
2023-02-22T02:43:22.666Z,17.65
2023-02-22T02:43:54.054Z,17.65
2023-02-22T02:44:25.456Z,17.66
2023-02-22T02:44:56.864Z,17.66
2023-02-22T02:45:28.286Z,17.65
2023-02-22T02:45:59.699Z,17.64
2023-02-22T02:46:31.155Z,17.66
2023-02-22T02:47:02.626Z,17.65
2023-02-22T02:47:34.088Z,17.65
2023-02-22T02:48:05.507Z,17.65
2023-02-22T02:48:36.903Z,17.65
2023-02-22T02:49:08.294Z,17.65
2023-02-22T02:49:39.703Z,17.65
2023-02-22T02:50:11.090Z,17.63
2023-02-22T02:50:42.499Z,17.65
2023-02-22T02:51:13.942Z,17.64
2023-02-22T02:51:45.406Z,17.65
2023-02-22T02:52:16.801Z,17.61
2023-02-22T02:52:48.194Z,17.61
2023-02-22T02:53:19.582Z,17.61
2023-02-22T02:53:51.007Z,17.62
2023-02-22T02:54:22.407Z,17.63
2023-02-22T02:54:53.808Z,17.61
2023-02-22T02:55:25.245Z,17.62
2023-02-22T02:55:56.660Z,17.61
2023-02-22T02:56:28.058Z,17.61
2023-02-22T02:56:59.500Z,17.61
2023-02-22T02:57:30.896Z,17.62
2023-02-22T02:58:02.286Z,17.60
2023-02-22T02:58:33.684Z,17.60
2023-02-22T02:59:05.080Z,17.58
2023-02-22T02:59:36.487Z,17.58
2023-02-22T03:00:07.884Z,17.58
2023-02-22T03:00:39.451Z,17.59
2023-02-22T03:01:10.920Z,17.56
2023-02-22T03:01:42.410Z,17.57
2023-02-22T03:02:13.874Z,17.56
2023-02-22T03:02:45.275Z,17.54
2023-02-22T03:03:16.703Z,17.56
2023-02-22T03:03:48.095Z,17.55
2023-02-22T03:04:19.495Z,17.57
2023-02-22T03:04:50.949Z,17.56
2023-02-22T03:05:22.368Z,17.56
2023-02-22T03:05:53.771Z,17.56
2023-02-22T03:06:25.166Z,17.56
2023-02-22T03:06:56.579Z,17.56
2023-02-22T03:07:28.089Z,17.56
2023-02-22T03:07:59.518Z,17.55
2023-02-22T03:08:30.912Z,17.53
2023-02-22T03:09:02.313Z,17.54
2023-02-22T03:09:33.717Z,17.55
2023-02-22T03:10:05.175Z,17.55
2023-02-22T03:10:36.603Z,17.55
2023-02-22T03:11:08.011Z,17.55
2023-02-22T03:11:39.413Z,17.55
2023-02-22T03:12:10.828Z,17.55
2023-02-22T03:12:42.257Z,17.54
2023-02-22T03:13:13.651Z,17.54
2023-02-22T03:13:45.048Z,17.53
2023-02-22T03:14:16.473Z,17.52
2023-02-22T03:14:47.876Z,17.51
2023-02-22T03:15:19.265Z,17.52
2023-02-22T03:15:50.681Z,17.51
2023-02-22T03:16:22.113Z,17.51
2023-02-22T03:16:53.549Z,17.52
2023-02-22T03:17:24.950Z,17.52
2023-02-22T03:17:56.417Z,17.52
2023-02-22T03:18:27.811Z,17.49
2023-02-22T03:18:59.212Z,17.49
2023-02-22T03:19:30.607Z,17.49
2023-02-22T03:20:02.153Z,17.51
2023-02-22T03:20:33.600Z,17.51
2023-02-22T03:21:05.013Z,17.47
2023-02-22T03:21:36.413Z,17.48
2023-02-22T03:22:07.822Z,17.48
2023-02-22T03:22:39.219Z,17.49
2023-02-22T03:23:10.657Z,17.48
2023-02-22T03:23:42.063Z,17.45
2023-02-22T03:24:13.486Z,17.43
2023-02-22T03:24:44.927Z,17.42
2023-02-22T03:25:16.333Z,17.46
2023-02-22T03:25:47.749Z,17.46
2023-02-22T03:26:19.162Z,17.45
2023-02-22T03:26:50.557Z,17.44
2023-02-22T03:27:21.961Z,17.45
2023-02-22T03:27:53.356Z,17.46
2023-02-22T03:28:24.784Z,17.45
2023-02-22T03:28:56.188Z,17.44
2023-02-22T03:29:27.588Z,17.42
2023-02-22T03:29:59.075Z,17.43
2023-02-22T03:30:30.536Z,17.42
2023-02-22T03:31:02.069Z,17.44
2023-02-22T03:31:33.637Z,17.45
2023-02-22T03:32:05.097Z,17.44
2023-02-22T03:32:36.489Z,17.44
2023-02-22T03:33:07.887Z,17.42
2023-02-22T03:33:39.308Z,17.41
2023-02-22T03:34:10.696Z,17.39
2023-02-22T03:34:42.088Z,17.39
2023-02-22T03:35:13.518Z,17.39
2023-02-22T03:35:44.931Z,17.41
2023-02-22T03:36:16.325Z,17.41
2023-02-22T03:36:47.752Z,17.42
2023-02-22T03:37:19.164Z,17.41
2023-02-22T03:37:50.579Z,17.41
2023-02-22T03:38:21.999Z,17.40
2023-02-22T03:38:53.389Z,17.40
2023-02-22T03:39:24.800Z,17.36
2023-02-22T03:39:56.212Z,17.37
2023-02-22T03:40:27.666Z,17.36
2023-02-22T03:40:59.080Z,17.37
2023-02-22T03:41:30.477Z,17.37
2023-02-22T03:42:01.894Z,17.39
2023-02-22T03:42:33.303Z,17.37
2023-02-22T03:43:04.702Z,17.35
2023-02-22T03:43:36.110Z,17.34
2023-02-22T03:44:07.527Z,17.36
2023-02-22T03:44:38.935Z,17.37
2023-02-22T03:45:10.408Z,17.37
2023-02-22T03:45:41.803Z,17.36
2023-02-22T03:46:13.256Z,17.36
2023-02-22T03:46:44.695Z,17.33
2023-02-22T03:47:16.087Z,17.34
2023-02-22T03:47:47.500Z,17.35
2023-02-22T03:48:18.916Z,17.33
2023-02-22T03:48:50.302Z,17.30
2023-02-22T03:49:21.694Z,17.32
2023-02-22T03:49:53.088Z,17.31
2023-02-22T03:50:24.505Z,17.28
2023-02-22T03:50:55.919Z,17.31
2023-02-22T03:51:27.317Z,17.32
2023-02-22T03:51:58.710Z,17.30
2023-02-22T03:52:30.111Z,17.31
2023-02-22T03:53:01.502Z,17.32
2023-02-22T03:53:32.971Z,17.32
2023-02-22T03:54:04.410Z,17.30
2023-02-22T03:54:35.820Z,17.31
2023-02-22T03:55:07.219Z,17.31
2023-02-22T03:55:38.620Z,17.29
2023-02-22T03:56:10.023Z,17.31
2023-02-22T03:56:41.415Z,17.31
2023-02-22T03:57:12.812Z,17.29
2023-02-22T03:57:44.210Z,17.27
2023-02-22T03:58:15.606Z,17.25
2023-02-22T03:58:47.052Z,17.27
2023-02-22T03:59:18.509Z,17.28
2023-02-22T03:59:49.920Z,17.28
2023-02-22T04:00:21.310Z,17.25
2023-02-22T04:00:52.707Z,17.26
2023-02-22T04:01:24.268Z,17.25
2023-02-22T04:01:55.681Z,17.24
2023-02-22T04:02:27.091Z,17.26
2023-02-22T04:02:58.526Z,17.27
2023-02-22T04:03:29.937Z,17.25
2023-02-22T04:04:01.358Z,17.26
2023-02-22T04:04:32.838Z,17.25
2023-02-22T04:05:04.248Z,17.26
2023-02-22T04:05:35.643Z,17.26
2023-02-22T04:06:07.060Z,17.24
2023-02-22T04:06:38.474Z,17.25
2023-02-22T04:07:09.862Z,17.24
2023-02-22T04:07:41.259Z,17.25
2023-02-22T04:08:12.667Z,17.27
2023-02-22T04:08:44.082Z,17.25
2023-02-22T04:09:15.505Z,17.24
2023-02-22T04:09:46.946Z,17.24
2023-02-22T04:10:18.385Z,17.24
2023-02-22T04:10:49.781Z,17.22
2023-02-22T04:11:21.195Z,17.22
2023-02-22T04:11:52.613Z,17.22
2023-02-22T04:12:24.021Z,17.22
2023-02-22T04:12:55.418Z,17.23
2023-02-22T04:13:26.810Z,17.22
2023-02-22T04:13:58.234Z,17.22
2023-02-22T04:14:29.852Z,17.23
2023-02-22T04:15:01.352Z,17.22
2023-02-22T04:15:32.769Z,17.22
2023-02-22T04:16:04.302Z,17.22
2023-02-22T04:16:35.715Z,17.20
2023-02-22T04:17:07.127Z,17.21
2023-02-22T04:17:38.519Z,17.22
2023-02-22T04:18:09.917Z,17.19
2023-02-22T04:18:41.354Z,17.21
2023-02-22T04:19:12.797Z,17.19
2023-02-22T04:19:44.194Z,17.18
2023-02-22T04:20:15.626Z,17.18
2023-02-22T04:20:47.014Z,17.19
2023-02-22T04:21:18.659Z,17.18
2023-02-22T04:21:50.222Z,17.18
2023-02-22T04:22:21.633Z,17.18
2023-02-22T04:22:53.033Z,17.19
2023-02-22T04:23:24.472Z,17.17
2023-02-22T04:23:55.870Z,17.18
2023-02-22T04:24:29.089Z,17.20
2023-02-22T04:25:01.670Z,17.18
2023-02-22T04:25:33.090Z,17.19
2023-02-22T04:26:04.511Z,17.19
2023-02-22T04:26:35.951Z,17.20
2023-02-22T04:27:07.360Z,17.18
2023-02-22T04:27:38.776Z,17.18
2023-02-22T04:28:10.187Z,17.18
2023-02-22T04:28:41.584Z,17.17
2023-02-22T04:29:13.003Z,17.19
2023-02-22T04:29:44.466Z,17.17
2023-02-22T04:30:15.882Z,17.16
2023-02-22T04:30:47.300Z,17.16
2023-02-22T04:31:18.969Z,17.16
2023-02-22T04:31:50.690Z,17.17
2023-02-22T04:32:22.192Z,17.17
2023-02-22T04:32:53.642Z,17.13
2023-02-22T04:33:25.030Z,17.15
2023-02-22T04:33:56.443Z,17.14
2023-02-22T04:34:27.884Z,17.15
2023-02-22T04:34:59.295Z,17.14
2023-02-22T04:35:30.717Z,17.12
2023-02-22T04:36:02.134Z,17.14
2023-02-22T04:36:33.537Z,17.15
2023-02-22T04:37:04.943Z,17.15
2023-02-22T04:37:36.345Z,17.15
2023-02-22T04:38:07.737Z,17.15
2023-02-22T04:38:39.141Z,17.13
2023-02-22T04:39:10.544Z,17.14
2023-02-22T04:39:42.007Z,17.12
2023-02-22T04:40:13.449Z,17.12
2023-02-22T04:40:44.863Z,17.12
2023-02-22T04:41:16.496Z,17.13
2023-02-22T04:41:48.084Z,17.13
2023-02-22T04:42:19.507Z,17.11
2023-02-22T04:42:50.922Z,17.13
2023-02-22T04:43:22.321Z,17.11
2023-02-22T04:43:53.717Z,17.09
2023-02-22T04:44:25.130Z,17.11
2023-02-22T04:44:56.558Z,17.09
2023-02-22T04:45:27.970Z,17.11
2023-02-22T04:45:59.365Z,17.13
2023-02-22T04:46:30.855Z,17.12
2023-02-22T04:47:02.282Z,17.11
2023-02-22T04:47:33.682Z,17.09
2023-02-22T04:48:05.107Z,17.10
2023-02-22T04:48:36.519Z,17.09
2023-02-22T04:49:07.936Z,17.07
2023-02-22T04:49:39.434Z,17.08
2023-02-22T04:50:10.851Z,17.08
2023-02-22T04:50:42.264Z,17.09
2023-02-22T04:51:13.779Z,17.07
2023-02-22T04:51:45.227Z,17.08
2023-02-22T04:52:16.622Z,17.07
2023-02-22T04:52:48.019Z,17.07
2023-02-22T04:53:19.432Z,17.08
2023-02-22T04:53:50.837Z,17.05
2023-02-22T04:54:22.231Z,17.07
2023-02-22T04:54:53.694Z,17.05
2023-02-22T04:55:25.123Z,17.06
2023-02-22T04:55:56.524Z,17.06
2023-02-22T04:56:28.097Z,17.04
2023-02-22T04:56:59.529Z,17.03
2023-02-22T04:57:31.058Z,17.04
2023-02-22T04:58:02.441Z,17.04
2023-02-22T04:58:33.849Z,17.02
2023-02-22T04:59:05.244Z,17.02
2023-02-22T04:59:36.656Z,17.02
2023-02-22T05:00:08.070Z,17.02
2023-02-22T05:00:39.514Z,17.03
2023-02-22T05:01:11.083Z,17.02
2023-02-22T05:01:42.471Z,17.03
2023-02-22T05:02:13.918Z,17.03
2023-02-22T05:02:45.398Z,17.04
2023-02-22T05:03:16.831Z,17.02
2023-02-22T05:03:48.227Z,17.01
2023-02-22T05:04:19.634Z,17.00
2023-02-22T05:04:51.132Z,17.02
2023-02-22T05:05:22.558Z,17.02
2023-02-22T05:05:53.975Z,17.01
2023-02-22T05:06:25.414Z,17.01
2023-02-22T05:06:56.818Z,16.99
2023-02-22T05:07:28.283Z,16.98
2023-02-22T05:07:59.691Z,16.98
2023-02-22T05:08:31.090Z,16.98
2023-02-22T05:09:02.481Z,16.98
2023-02-22T05:09:33.876Z,17.00
2023-02-22T05:10:05.276Z,16.98
2023-02-22T05:10:36.675Z,16.99
2023-02-22T05:11:08.072Z,17.00
2023-02-22T05:11:39.478Z,17.00
2023-02-22T05:12:10.905Z,17.00
2023-02-22T05:12:42.333Z,17.00
2023-02-22T05:13:13.745Z,17.01
2023-02-22T05:13:45.170Z,16.98
2023-02-22T05:14:16.585Z,16.99
2023-02-22T05:14:48.015Z,16.99
2023-02-22T05:15:19.407Z,16.97
2023-02-22T05:15:50.830Z,16.98
2023-02-22T05:16:22.322Z,16.98
2023-02-22T05:16:53.806Z,16.97
2023-02-22T05:17:25.207Z,16.96
2023-02-22T05:17:56.628Z,16.95
2023-02-22T05:18:28.030Z,16.96
2023-02-22T05:18:59.420Z,16.97
2023-02-22T05:19:30.843Z,16.95
2023-02-22T05:20:02.287Z,16.95
2023-02-22T05:20:33.687Z,16.92
2023-02-22T05:21:05.109Z,16.95
2023-02-22T05:21:36.505Z,16.94
2023-02-22T05:22:07.922Z,16.94
2023-02-22T05:22:39.318Z,16.94
2023-02-22T05:23:10.760Z,16.94
2023-02-22T05:23:42.172Z,16.93
2023-02-22T05:24:13.573Z,16.94
2023-02-22T05:24:44.981Z,16.94
2023-02-22T05:25:16.437Z,16.92
2023-02-22T05:25:47.846Z,16.94
2023-02-22T05:26:19.275Z,16.94
2023-02-22T05:26:50.658Z,16.92
2023-02-22T05:27:22.051Z,16.94
2023-02-22T05:27:53.462Z,16.94
2023-02-22T05:28:24.913Z,16.92
2023-02-22T05:28:56.323Z,16.92
2023-02-22T05:29:27.722Z,16.92
2023-02-22T05:29:59.148Z,16.92
2023-02-22T05:30:30.586Z,16.93
2023-02-22T05:31:02.047Z,16.94
2023-02-22T05:31:33.530Z,16.94
2023-02-22T05:32:05.057Z,16.93
2023-02-22T05:32:36.539Z,16.94
2023-02-22T05:33:07.959Z,16.92
2023-02-22T05:33:39.454Z,16.93
2023-02-22T05:34:10.907Z,16.92
2023-02-22T05:34:42.317Z,16.92
2023-02-22T05:35:13.738Z,16.93
2023-02-22T05:35:45.138Z,16.92
2023-02-22T05:36:16.536Z,16.92
2023-02-22T05:36:47.964Z,16.91
2023-02-22T05:37:19.359Z,16.91
2023-02-22T05:37:50.806Z,16.91
2023-02-22T05:38:22.222Z,16.90
2023-02-22T05:38:53.697Z,16.91
2023-02-22T05:39:25.110Z,16.90
2023-02-22T05:39:56.518Z,16.90
2023-02-22T05:40:27.923Z,16.90
2023-02-22T05:40:59.332Z,16.90
2023-02-22T05:41:30.742Z,16.90
2023-02-22T05:42:02.169Z,16.90
2023-02-22T05:42:33.569Z,16.90
2023-02-22T05:43:04.963Z,16.90
2023-02-22T05:43:36.515Z,16.90
2023-02-22T05:44:07.993Z,16.90
2023-02-22T05:44:39.395Z,16.90
2023-02-22T05:45:10.807Z,16.90
2023-02-22T05:45:42.212Z,16.90
2023-02-22T05:46:13.655Z,16.90
2023-02-22T05:46:45.128Z,16.91
2023-02-22T05:47:16.574Z,16.91
2023-02-22T05:47:47.983Z,16.91
2023-02-22T05:48:22.228Z,16.91
2023-02-22T05:48:54.016Z,16.92
2023-02-22T05:49:25.439Z,16.91
2023-02-22T05:49:56.848Z,16.92
2023-02-22T05:50:28.265Z,16.92
2023-02-22T05:50:59.682Z,16.91
2023-02-22T05:51:31.068Z,16.92
2023-02-22T05:52:02.456Z,16.92
2023-02-22T05:52:33.878Z,16.93
2023-02-22T05:53:05.291Z,16.94
2023-02-22T05:53:36.679Z,16.92
2023-02-22T05:54:08.068Z,16.95
2023-02-22T05:54:39.504Z,16.94
2023-02-22T05:55:10.897Z,16.94
2023-02-22T05:55:42.318Z,16.95
2023-02-22T05:56:13.732Z,16.95
2023-02-22T05:56:45.152Z,16.96
2023-02-22T05:57:16.571Z,16.96
2023-02-22T05:57:47.984Z,16.97
2023-02-22T05:58:19.397Z,16.97
2023-02-22T05:58:50.796Z,16.97
2023-02-22T05:59:22.191Z,16.97
2023-02-22T05:59:53.612Z,16.98
2023-02-22T06:00:25.044Z,16.97
2023-02-22T06:00:56.445Z,16.97
2023-02-22T06:01:27.853Z,16.97
2023-02-22T06:01:59.335Z,16.97
2023-02-22T06:02:30.756Z,16.97
2023-02-22T06:03:02.176Z,16.97
2023-02-22T06:03:33.590Z,16.98
2023-02-22T06:04:04.989Z,16.98
2023-02-22T06:04:36.398Z,16.98
2023-02-22T06:05:07.833Z,16.98
2023-02-22T06:05:39.265Z,16.98
2023-02-22T06:06:10.715Z,16.97
2023-02-22T06:06:42.112Z,16.97
2023-02-22T06:07:13.507Z,16.97
2023-02-22T06:07:44.911Z,16.99
2023-02-22T06:08:16.298Z,16.97
2023-02-22T06:08:47.698Z,16.98
2023-02-22T06:09:19.097Z,16.98
2023-02-22T06:09:50.515Z,16.97
2023-02-22T06:10:21.943Z,16.98
2023-02-22T06:10:53.332Z,16.99
2023-02-22T06:11:24.732Z,16.99
2023-02-22T06:11:56.131Z,16.99
2023-02-22T06:12:27.528Z,16.98
2023-02-22T06:12:58.941Z,16.98
2023-02-22T06:13:30.345Z,17.00
2023-02-22T06:14:01.769Z,16.99
2023-02-22T06:14:33.192Z,17.00
2023-02-22T06:15:04.610Z,16.99
2023-02-22T06:15:36.020Z,16.99
2023-02-22T06:16:07.454Z,16.99
2023-02-22T06:16:38.873Z,17.00
2023-02-22T06:17:10.287Z,17.00
2023-02-22T06:17:41.765Z,17.00
2023-02-22T06:18:13.181Z,17.00
2023-02-22T06:18:44.592Z,17.00
2023-02-22T06:19:15.993Z,17.01
2023-02-22T06:19:47.387Z,17.00
2023-02-22T06:20:18.824Z,17.00
2023-02-22T06:20:50.210Z,16.99
2023-02-22T06:21:21.600Z,17.00
2023-02-22T06:21:52.990Z,17.00
2023-02-22T06:22:24.374Z,17.00
2023-02-22T06:22:55.797Z,17.01
2023-02-22T06:23:27.211Z,17.00
2023-02-22T06:23:58.641Z,17.00
2023-02-22T06:24:30.038Z,17.00
2023-02-22T06:25:01.451Z,17.00
2023-02-22T06:25:32.869Z,17.01
2023-02-22T06:26:04.276Z,17.00
2023-02-22T06:26:35.679Z,17.00
2023-02-22T06:27:07.079Z,17.01
2023-02-22T06:27:38.471Z,17.00
2023-02-22T06:28:09.948Z,17.01
2023-02-22T06:28:41.343Z,17.00
2023-02-22T06:29:12.739Z,17.02
2023-02-22T06:29:44.137Z,17.01
2023-02-22T06:30:15.546Z,17.01
2023-02-22T06:30:47.047Z,17.00
2023-02-22T06:31:18.761Z,17.00
2023-02-22T06:31:50.474Z,16.99
2023-02-22T06:32:21.985Z,17.00
2023-02-22T06:32:53.411Z,17.01
2023-02-22T06:33:24.811Z,17.01
2023-02-22T06:33:56.240Z,17.01
2023-02-22T06:34:27.644Z,17.00
2023-02-22T06:34:59.051Z,17.01
2023-02-22T06:35:30.464Z,17.01
2023-02-22T06:36:01.857Z,17.02
2023-02-22T06:36:33.292Z,17.01
2023-02-22T06:37:04.704Z,17.01
2023-02-22T06:37:36.137Z,17.01
2023-02-22T06:38:07.547Z,17.01
2023-02-22T06:38:39.035Z,17.02
2023-02-22T06:39:10.442Z,17.01
2023-02-22T06:39:41.876Z,17.01
2023-02-22T06:40:13.292Z,17.02
2023-02-22T06:40:44.703Z,17.01
2023-02-22T06:41:16.440Z,17.02
2023-02-22T06:41:48.445Z,17.03
2023-02-22T06:42:19.997Z,17.00
2023-02-22T06:42:51.910Z,17.02
2023-02-22T06:43:23.390Z,17.02
2023-02-22T06:43:54.810Z,17.03
2023-02-22T06:44:26.263Z,17.02
2023-02-22T06:44:57.704Z,17.02